createdAt,value
2018-10-06T00:01:07.683Z,9.50
2018-10-06T00:03:35.808Z,9.40
2018-10-06T00:06:03.932Z,10.10
2018-10-06T00:08:32.040Z,9.13
2018-10-06T00:11:00.159Z,8.90
2018-10-06T00:13:34.571Z,9.27
2018-10-06T00:16:02.718Z,8.77
2018-10-06T00:18:30.825Z,9.27
2018-10-06T00:20:58.940Z,7.97
2018-10-06T00:23:27.045Z,8.77
2018-10-06T00:25:55.154Z,9.13
2018-10-06T00:28:23.268Z,9.40
2018-10-06T00:30:51.347Z,8.80
2018-10-06T00:33:19.468Z,8.80
2018-10-06T00:35:47.621Z,9.80
2018-10-06T00:38:15.751Z,9.67
2018-10-06T00:40:43.845Z,11.07
2018-10-06T00:43:11.973Z,11.67
2018-10-06T00:45:40.108Z,8.60
2018-10-06T00:48:08.266Z,9.90
2018-10-06T00:50:36.398Z,13.83
2018-10-06T00:53:04.508Z,9.23
2018-10-06T00:55:32.626Z,8.80
2018-10-06T00:58:00.735Z,13.60
2018-10-06T01:00:28.828Z,9.67
2018-10-06T01:02:56.935Z,8.90
2018-10-06T01:05:25.016Z,9.30
2018-10-06T01:07:54.268Z,9.76
2018-10-06T01:10:22.396Z,9.25
2018-10-06T01:12:50.508Z,9.48
2018-10-06T01:15:18.647Z,8.90
2018-10-06T01:17:46.808Z,8.88
2018-10-06T01:20:14.909Z,7.50
2018-10-06T01:22:43.034Z,9.93
2018-10-06T01:25:11.153Z,12.73
2018-10-06T01:27:39.265Z,10.30
2018-10-06T01:30:07.400Z,11.90
2018-10-06T01:32:35.492Z,8.30
2018-10-06T01:35:03.621Z,12.07
2018-10-06T01:37:31.740Z,12.00
2018-10-06T01:39:59.886Z,9.47
2018-10-06T01:42:27.972Z,8.77
2018-10-06T01:44:56.088Z,11.37
2018-10-06T01:47:24.216Z,12.03
2018-10-06T01:49:52.327Z,12.37
2018-10-06T01:52:20.420Z,11.22
2018-10-06T01:54:48.544Z,12.28
2018-10-06T01:57:16.684Z,10.18
2018-10-06T01:59:44.764Z,9.33
2018-10-06T02:02:12.877Z,11.10
2018-10-06T02:04:40.968Z,9.37
2018-10-06T02:07:09.102Z,8.75
2018-10-06T02:09:37.192Z,8.48
2018-10-06T02:12:05.309Z,9.47
2018-10-06T02:14:33.437Z,9.73
2018-10-06T02:17:01.581Z,8.58
2018-10-06T02:19:29.708Z,8.70
2018-10-06T02:21:57.808Z,10.17
2018-10-06T02:24:25.912Z,9.20
2018-10-06T02:26:54.045Z,9.23
2018-10-06T02:29:22.176Z,9.40
2018-10-06T02:31:50.304Z,10.25
2018-10-06T02:34:18.476Z,10.10
2018-10-06T02:36:46.636Z,8.58
2018-10-06T02:39:14.703Z,11.23
2018-10-06T02:41:42.837Z,11.05
2018-10-06T02:44:10.940Z,9.90
2018-10-06T02:46:39.034Z,10.47
2018-10-06T02:49:07.160Z,11.23
2018-10-06T02:51:35.302Z,10.27
2018-10-06T02:54:03.408Z,8.83
2018-10-06T02:56:31.550Z,12.87
2018-10-06T02:58:59.653Z,9.60
2018-10-06T03:01:27.797Z,11.00
2018-10-06T03:03:55.918Z,15.00
2018-10-06T03:06:24.016Z,10.90
2018-10-06T03:08:52.140Z,9.20
2018-10-06T03:11:20.236Z,12.10
2018-10-06T03:13:48.375Z,10.45
2018-10-06T03:16:16.513Z,9.93
2018-10-06T03:18:44.859Z,10.20
2018-10-06T03:21:12.960Z,9.43
2018-10-06T03:23:41.651Z,11.88
2018-10-06T03:26:09.764Z,8.93
2018-10-06T03:28:37.854Z,8.63
2018-10-06T03:31:05.976Z,10.07
2018-10-06T03:33:34.078Z,10.13
2018-10-06T03:36:02.192Z,10.98
2018-10-06T03:38:30.284Z,10.65
2018-10-06T03:40:58.456Z,10.13
2018-10-06T03:43:26.561Z,10.17
2018-10-06T03:45:54.675Z,9.47
2018-10-06T03:48:22.830Z,10.80
2018-10-06T03:50:50.969Z,10.10
2018-10-06T03:53:19.076Z,10.08
2018-10-06T03:55:47.192Z,10.15
2018-10-06T03:58:15.318Z,9.58
2018-10-06T04:00:43.432Z,9.57
2018-10-06T04:03:11.532Z,13.13
2018-10-06T04:05:39.668Z,11.13
2018-10-06T04:08:07.753Z,10.70
2018-10-06T04:10:35.912Z,11.33
2018-10-06T04:13:03.996Z,10.20
2018-10-06T04:15:32.127Z,11.03
2018-10-06T04:18:00.255Z,8.95
2018-10-06T04:20:28.396Z,11.10
2018-10-06T04:22:56.502Z,11.03
2018-10-06T04:25:24.632Z,10.40
2018-10-06T04:27:52.755Z,10.20
2018-10-06T04:30:20.953Z,12.23
2018-10-06T04:32:49.084Z,12.50
2018-10-06T04:35:17.193Z,14.83
2018-10-06T04:37:45.349Z,10.35
2018-10-06T04:40:13.473Z,9.23
2018-10-06T04:42:41.564Z,9.67
2018-10-06T04:45:09.681Z,12.33
2018-10-06T04:47:37.794Z,10.77
2018-10-06T04:50:06.064Z,9.60
2018-10-06T04:52:34.200Z,11.70
2018-10-06T04:55:02.321Z,10.80
2018-10-06T04:57:30.437Z,10.40
2018-10-06T04:59:58.618Z,11.90
2018-10-06T05:02:27.192Z,11.10
2018-10-06T05:04:55.324Z,12.83
2018-10-06T05:07:23.484Z,10.30
2018-10-06T05:09:51.627Z,9.93
2018-10-06T05:12:19.755Z,10.98
2018-10-06T05:14:47.962Z,9.43
2018-10-06T05:17:16.087Z,11.45
2018-10-06T05:19:44.216Z,11.00
2018-10-06T05:22:12.376Z,9.93
2018-10-06T05:24:40.498Z,11.00
2018-10-06T05:27:08.668Z,10.00
2018-10-06T05:29:37.090Z,18.43
2018-10-06T05:32:05.319Z,10.10
2018-10-06T05:34:33.524Z,9.53
2018-10-06T05:37:01.662Z,8.90
2018-10-06T05:39:29.884Z,9.78
2018-10-06T05:41:58.020Z,9.60
2018-10-06T05:44:26.124Z,10.50
2018-10-06T05:46:55.505Z,9.00
2018-10-06T05:49:23.784Z,8.20
2018-10-06T05:51:51.902Z,8.53
2018-10-06T05:54:20.082Z,8.43
2018-10-06T05:56:48.232Z,7.67
2018-10-06T05:59:16.340Z,10.23
2018-10-06T06:01:44.492Z,9.70
2018-10-06T06:04:12.604Z,9.90
2018-10-06T06:06:40.748Z,9.17
2018-10-06T06:11:43.448Z,8.70
2018-10-06T06:14:11.763Z,9.60
2018-10-06T06:16:39.859Z,8.93
2018-10-06T06:19:08.025Z,8.83
2018-10-06T06:21:36.148Z,9.40
2018-10-06T06:24:04.368Z,10.88
2018-10-06T06:26:32.504Z,9.48
2018-10-06T06:29:00.637Z,9.90
2018-10-06T06:31:28.835Z,12.07
2018-10-06T06:33:56.866Z,11.28
2018-10-06T06:36:24.964Z,10.82
2018-10-06T06:38:53.349Z,10.93
2018-10-06T06:41:28.165Z,14.40
2018-10-06T06:43:56.478Z,12.60
2018-10-06T06:46:24.508Z,12.90
2018-10-06T06:48:52.660Z,12.40
2018-10-06T06:51:20.744Z,25.00
2018-10-06T06:53:48.877Z,15.76
2018-10-06T06:56:17.004Z,12.53
2018-10-06T06:58:45.141Z,14.60
2018-10-06T07:01:13.319Z,12.80
2018-10-06T07:03:41.540Z,12.75
2018-10-06T07:06:09.670Z,10.93
2018-10-06T07:08:37.800Z,13.53
2018-10-06T07:11:06.003Z,13.03
2018-10-06T07:13:34.145Z,18.05
2018-10-06T07:16:02.246Z,11.63
2018-10-06T07:18:30.485Z,11.20
2018-10-06T07:20:58.573Z,13.00
2018-10-06T07:23:26.688Z,11.10
2018-10-06T07:25:54.836Z,11.70
2018-10-06T07:28:23.059Z,12.20
2018-10-06T07:30:51.139Z,15.47
2018-10-06T07:33:19.276Z,10.70
2018-10-06T07:35:47.412Z,10.87
2018-10-06T07:38:15.544Z,10.17
2018-10-06T07:40:43.683Z,11.07
2018-10-06T07:43:11.836Z,13.47
2018-10-06T07:45:40.027Z,12.00
2018-10-06T07:48:08.109Z,11.10
2018-10-06T07:50:36.204Z,11.93
2018-10-06T07:53:04.322Z,11.90
2018-10-06T07:55:32.467Z,11.43
2018-10-06T07:58:00.591Z,12.00
2018-10-06T08:00:28.725Z,11.30
2018-10-06T08:02:56.836Z,13.17
2018-10-06T08:05:24.964Z,13.87
2018-10-06T08:07:53.084Z,12.47
2018-10-06T08:10:27.912Z,11.67
2018-10-06T08:12:56.193Z,12.53
2018-10-06T08:15:24.324Z,13.90
2018-10-06T08:17:52.428Z,12.77
2018-10-06T08:20:20.548Z,12.17
2018-10-06T08:22:48.961Z,11.55
2018-10-06T08:25:17.057Z,12.13
2018-10-06T08:27:45.165Z,11.77
2018-10-06T08:30:13.304Z,13.30
2018-10-06T08:32:41.421Z,12.73
2018-10-06T08:35:09.604Z,13.80
2018-10-06T08:37:37.757Z,14.67
2018-10-06T08:40:05.860Z,14.30
2018-10-06T08:42:34.015Z,15.53
2018-10-06T08:45:02.101Z,13.27
2018-10-06T08:47:30.244Z,12.95
2018-10-06T08:49:58.361Z,12.03
2018-10-06T08:52:26.500Z,14.23
2018-10-06T08:54:54.647Z,13.23
2018-10-06T08:57:22.760Z,13.85
2018-10-06T08:59:50.856Z,13.94
2018-10-06T09:02:18.956Z,12.37
2018-10-06T09:04:47.076Z,14.20
2018-10-06T09:07:15.256Z,14.53
2018-10-06T09:09:43.389Z,13.23
2018-10-06T09:12:11.515Z,14.00
2018-10-06T09:14:39.633Z,13.70
2018-10-06T09:17:07.811Z,13.05
2018-10-06T09:19:35.942Z,14.33
2018-10-06T09:22:04.085Z,14.40
2018-10-06T09:24:32.203Z,15.53
2018-10-06T09:27:00.341Z,14.38
2018-10-06T09:29:28.448Z,16.00
2018-10-06T09:31:56.556Z,13.85
2018-10-06T09:34:24.661Z,13.17
2018-10-06T09:36:52.784Z,12.33
2018-10-06T09:39:20.937Z,14.03
2018-10-06T09:41:49.080Z,14.75
2018-10-06T09:44:17.179Z,16.20
2018-10-06T09:46:45.292Z,12.88
2018-10-06T09:49:13.409Z,11.35
2018-10-06T09:51:41.655Z,12.37
2018-10-06T09:54:09.760Z,11.67
2018-10-06T09:56:37.881Z,14.43
2018-10-06T09:59:06.328Z,11.63
2018-10-06T10:01:39.766Z,13.00
2018-10-06T10:04:12.287Z,13.13
2018-10-06T10:06:40.859Z,16.93
2018-10-06T10:09:10.888Z,11.67
2018-10-06T10:11:39.192Z,11.20
2018-10-06T10:14:07.813Z,11.90
2018-10-06T10:16:35.930Z,10.13
2018-10-06T10:19:04.421Z,11.63
2018-10-06T10:21:32.701Z,12.23
2018-10-06T10:24:00.917Z,14.05
2018-10-06T10:26:29.060Z,11.73
2018-10-06T10:28:57.502Z,10.80
2018-10-06T10:31:25.744Z,11.40
2018-10-06T10:33:53.909Z,11.05
2018-10-06T10:36:22.064Z,10.98
2018-10-06T10:38:50.189Z,10.80
2018-10-06T10:41:18.287Z,11.08
2018-10-06T10:43:46.433Z,13.62
2018-10-06T10:46:14.535Z,12.05
2018-10-06T10:48:42.646Z,11.63
2018-10-06T10:51:10.769Z,10.43
2018-10-06T10:53:39.076Z,8.23
2018-10-06T10:56:07.176Z,13.40
2018-10-06T10:58:35.289Z,12.23
2018-10-06T11:01:03.455Z,11.40
2018-10-06T11:03:31.554Z,10.60
2018-10-06T11:05:59.671Z,10.30
2018-10-06T11:08:27.778Z,11.00
2018-10-06T11:10:55.909Z,13.03
2018-10-06T11:13:24.066Z,12.18
2018-10-06T11:15:52.211Z,13.13
2018-10-06T11:18:20.322Z,18.95
2018-10-06T11:20:48.544Z,10.48
2018-10-06T11:23:16.700Z,11.30
2018-10-06T11:25:44.825Z,10.03
2018-10-06T11:28:12.978Z,12.00
2018-10-06T11:30:41.111Z,11.13
2018-10-06T11:33:09.209Z,10.77
2018-10-06T11:35:37.327Z,13.80
2018-10-06T11:38:05.621Z,13.30
2018-10-06T11:40:33.684Z,12.80
2018-10-06T11:43:01.777Z,11.73
2018-10-06T11:45:29.903Z,12.30
2018-10-06T11:47:58.032Z,12.37
2018-10-06T11:50:26.270Z,14.80
2018-10-06T11:52:54.292Z,11.47
2018-10-06T11:55:22.424Z,15.10
2018-10-06T11:57:50.641Z,18.87
2018-10-06T12:00:18.844Z,14.50
2018-10-06T12:02:46.884Z,12.03
2018-10-06T12:05:15.037Z,12.23
2018-10-06T12:07:43.165Z,13.17
2018-10-06T12:10:11.272Z,20.53
2018-10-06T12:12:39.375Z,11.70
2018-10-06T12:15:07.488Z,12.90
2018-10-06T12:17:35.618Z,14.60
2018-10-06T12:20:03.721Z,11.90
2018-10-06T12:22:31.823Z,11.07
2018-10-06T12:24:59.993Z,12.90
2018-10-06T12:27:28.121Z,11.17
2018-10-06T12:29:56.261Z,9.80
2018-10-06T12:32:24.467Z,10.83
2018-10-06T12:34:52.589Z,12.70
2018-10-06T12:37:20.704Z,13.20
2018-10-06T12:39:48.877Z,15.33
2018-10-06T12:42:17.074Z,13.90
2018-10-06T12:44:45.142Z,12.93
2018-10-06T12:47:13.269Z,13.53
2018-10-06T12:49:41.416Z,13.30
2018-10-06T12:52:09.551Z,13.93
2018-10-06T12:54:37.666Z,14.30
2018-10-06T12:57:05.888Z,12.70
2018-10-06T12:59:33.997Z,14.23
2018-10-06T13:02:02.138Z,12.30
2018-10-06T13:04:30.287Z,16.50
2018-10-06T13:06:58.424Z,13.70
2018-10-06T13:09:26.545Z,16.37
2018-10-06T13:11:54.826Z,15.37
2018-10-06T13:14:22.875Z,15.23
2018-10-06T13:16:51.016Z,18.10
2018-10-06T13:19:19.148Z,15.50
2018-10-06T13:21:47.355Z,12.80
2018-10-06T13:24:15.452Z,18.35
2018-10-06T13:26:43.598Z,10.90
2018-10-06T13:29:12.568Z,16.93
2018-10-06T13:31:40.703Z,12.67
2018-10-06T13:34:08.808Z,11.83
2018-10-06T13:36:36.920Z,10.37
2018-10-06T13:39:06.871Z,13.70
2018-10-06T13:41:35.024Z,14.93
2018-10-06T13:44:03.156Z,10.80
2018-10-06T13:46:31.273Z,9.80
2018-10-06T13:48:59.385Z,11.60
2018-10-06T13:51:27.490Z,10.37
2018-10-06T13:53:55.931Z,12.63
2018-10-06T13:56:24.040Z,11.63
2018-10-06T13:58:52.227Z,10.17
2018-10-06T14:01:20.341Z,9.93
2018-10-06T14:03:48.548Z,13.10
2018-10-06T14:06:16.664Z,13.77
2018-10-06T14:08:44.765Z,14.30
2018-10-06T14:11:12.893Z,11.37
2018-10-06T14:13:41.025Z,9.87
2018-10-06T14:16:09.288Z,9.53
2018-10-06T14:18:37.431Z,11.87
2018-10-06T14:21:05.649Z,10.20
2018-10-06T14:23:33.755Z,8.67
2018-10-06T14:26:01.889Z,9.87
2018-10-06T14:28:29.998Z,8.60
2018-10-06T14:30:58.150Z,9.83
2018-10-06T14:33:26.293Z,10.10
2018-10-06T14:35:54.666Z,10.08
2018-10-06T14:38:23.405Z,11.07
2018-10-06T14:40:52.004Z,9.90
2018-10-06T14:43:20.210Z,12.33
2018-10-06T14:45:48.535Z,11.37
2018-10-06T14:48:16.694Z,10.10
2018-10-06T14:50:44.837Z,12.03
2018-10-06T14:53:13.107Z,11.03
2018-10-06T14:55:41.222Z,10.23
2018-10-06T14:58:09.364Z,10.40
2018-10-06T15:00:37.496Z,10.90
2018-10-06T15:03:05.725Z,9.97
2018-10-06T15:05:33.927Z,8.80
2018-10-06T15:08:02.104Z,9.33
2018-10-06T15:10:30.250Z,9.93
2018-10-06T15:12:58.436Z,8.50
2018-10-06T15:15:26.571Z,8.60
2018-10-06T15:17:54.703Z,8.10
2018-10-06T15:20:22.805Z,7.83
2018-10-06T15:22:50.980Z,8.23
2018-10-06T15:25:19.093Z,9.67
2018-10-06T15:27:47.247Z,10.30
2018-10-06T15:30:15.377Z,8.17
2018-10-06T15:32:43.509Z,7.27
2018-10-06T15:35:11.658Z,7.53
2018-10-06T15:37:39.873Z,7.87
2018-10-06T15:40:07.985Z,10.00
2018-10-06T15:42:36.115Z,9.17
2018-10-06T15:45:04.833Z,10.03
2018-10-06T15:47:32.949Z,10.20
2018-10-06T15:50:01.122Z,7.80
2018-10-06T15:52:29.220Z,8.30
2018-10-06T15:54:57.338Z,7.20
2018-10-06T15:57:25.447Z,7.13
2018-10-06T15:59:53.549Z,7.03
2018-10-06T16:02:21.674Z,8.57
2018-10-06T16:04:49.788Z,9.83
2018-10-06T16:07:17.953Z,7.50
2018-10-06T16:09:46.017Z,9.50
2018-10-06T16:12:14.186Z,9.83
2018-10-06T16:14:42.254Z,7.90
2018-10-06T16:17:10.375Z,7.67
2018-10-06T16:19:38.511Z,8.50
2018-10-06T16:22:06.756Z,8.08
2018-10-06T16:24:34.881Z,8.67
2018-10-06T16:27:03.146Z,8.23
2018-10-06T16:29:31.232Z,8.85
2018-10-06T16:31:59.352Z,7.86
2018-10-06T16:34:27.479Z,8.50
2018-10-06T16:36:55.628Z,8.60
2018-10-06T16:39:23.790Z,8.28
2018-10-06T16:41:51.892Z,8.43
2018-10-06T16:44:20.021Z,8.73
2018-10-06T16:46:48.132Z,8.23
2018-10-06T16:49:16.252Z,8.73
2018-10-06T16:51:44.432Z,9.23
2018-10-06T16:54:12.475Z,9.38
2018-10-06T16:56:40.577Z,8.20
2018-10-06T16:59:08.685Z,8.75
2018-10-06T17:01:36.798Z,8.90
2018-10-06T17:04:04.888Z,9.13
2018-10-06T17:06:33.001Z,8.28
2018-10-06T17:09:01.093Z,8.50
2018-10-06T17:11:29.200Z,8.28
2018-10-06T17:13:57.401Z,8.80
2018-10-06T17:16:25.505Z,8.80
2018-10-06T17:18:53.620Z,8.95
2018-10-06T17:21:21.720Z,9.15
2018-10-06T17:23:49.853Z,8.43
2018-10-06T17:26:17.960Z,9.40
2018-10-06T17:28:46.093Z,8.37
2018-10-06T17:31:14.251Z,10.03
2018-10-06T17:33:42.276Z,8.40
2018-10-06T17:36:10.372Z,9.03
2018-10-06T17:38:38.527Z,8.60
2018-10-06T17:41:06.654Z,9.47
2018-10-06T17:43:34.796Z,9.37
2018-10-06T17:46:02.904Z,8.43
2018-10-06T17:48:31.018Z,9.37
2018-10-06T17:50:59.225Z,8.47
2018-10-06T17:53:27.417Z,8.75
2018-10-06T17:55:55.525Z,9.08
2018-10-06T17:58:23.727Z,10.13
2018-10-06T18:00:51.761Z,9.93
2018-10-06T18:03:19.981Z,10.10
2018-10-06T18:05:48.096Z,10.10
2018-10-06T18:08:16.220Z,9.50
2018-10-06T18:10:44.352Z,9.30
2018-10-06T18:13:12.457Z,8.73
2018-10-06T18:15:40.565Z,9.00
2018-10-06T18:18:08.773Z,9.63
2018-10-06T18:20:37.130Z,9.80
2018-10-06T18:23:05.031Z,10.73
2018-10-06T18:25:34.049Z,10.03
2018-10-06T18:28:02.173Z,11.80
2018-10-06T18:30:30.253Z,10.20
2018-10-06T18:32:58.361Z,9.40
2018-10-06T18:35:26.468Z,10.70
2018-10-06T18:37:54.570Z,9.75
2018-10-06T18:40:22.697Z,9.68
2018-10-06T18:42:50.872Z,10.77
2018-10-06T18:45:19.028Z,9.13
2018-10-06T18:47:47.145Z,9.83
2018-10-06T18:50:15.260Z,10.53
2018-10-06T18:52:43.347Z,9.57
2018-10-06T18:55:11.480Z,10.30
2018-10-06T18:57:39.627Z,9.97
2018-10-06T19:00:08.144Z,12.00
2018-10-06T19:02:36.276Z,10.57
2018-10-06T19:05:04.375Z,11.40
2018-10-06T19:07:32.491Z,11.43
2018-10-06T19:10:00.668Z,10.80
2018-10-06T19:12:28.698Z,11.70
2018-10-06T19:14:56.815Z,12.13
2018-10-06T19:17:24.909Z,10.70
2018-10-06T19:19:53.033Z,12.63
2018-10-06T19:22:21.208Z,11.07
2018-10-06T19:24:55.976Z,12.33
2018-10-06T19:27:24.135Z,12.60
2018-10-06T19:29:52.261Z,11.43
2018-10-06T19:32:20.409Z,14.23
2018-10-06T19:34:48.527Z,13.80
2018-10-06T19:37:16.670Z,14.70
2018-10-06T19:39:44.840Z,15.20
2018-10-06T19:42:12.927Z,14.53
2018-10-06T19:44:41.032Z,12.87
2018-10-06T19:47:09.152Z,11.50
2018-10-06T19:49:37.261Z,13.30
2018-10-06T19:52:05.361Z,14.23
2018-10-06T19:54:33.478Z,17.93
2018-10-06T19:57:01.780Z,17.17
2018-10-06T19:59:29.900Z,16.90
2018-10-06T20:01:58.022Z,14.30
2018-10-06T20:04:26.146Z,13.70
2018-10-06T20:06:54.257Z,12.68
2018-10-06T20:09:22.377Z,13.00
2018-10-06T20:11:50.488Z,13.72
2018-10-06T20:14:18.608Z,14.30
2018-10-06T20:16:46.708Z,15.15
2018-10-06T20:19:15.064Z,17.15
2018-10-06T20:21:43.159Z,15.83
2018-10-06T20:24:11.362Z,15.90
2018-10-06T20:26:39.480Z,13.88
2018-10-06T20:29:07.579Z,13.25
2018-10-06T20:31:35.684Z,13.25
2018-10-06T20:34:03.788Z,11.97
2018-10-06T20:36:31.908Z,13.27
2018-10-06T20:39:00.027Z,12.90
2018-10-06T20:41:28.125Z,11.75
2018-10-06T20:43:56.241Z,12.50
2018-10-06T20:46:24.405Z,12.85
2018-10-06T20:48:52.466Z,13.10
2018-10-06T20:51:20.575Z,14.78
2018-10-06T20:53:48.693Z,14.32
2018-10-06T20:56:16.800Z,14.87
2018-10-06T20:58:44.926Z,15.33
2018-10-06T21:01:13.018Z,16.00
2018-10-06T21:03:41.144Z,16.47
2018-10-06T21:06:09.244Z,17.10
2018-10-06T21:08:37.337Z,17.70
2018-10-06T21:11:05.489Z,15.97
2018-10-06T21:13:33.690Z,16.17
2018-10-06T21:16:01.825Z,15.57
2018-10-06T21:18:30.311Z,16.60
2018-10-06T21:20:58.359Z,14.93
2018-10-06T21:23:26.464Z,14.43
2018-10-06T21:25:54.595Z,16.00
2018-10-06T21:28:22.671Z,16.60
2018-10-06T21:30:50.770Z,14.93
2018-10-06T21:33:18.905Z,15.28
2018-10-06T21:35:47.017Z,13.97
2018-10-06T21:38:15.105Z,14.10
2018-10-06T21:40:43.187Z,14.50
2018-10-06T21:43:11.973Z,13.55
2018-10-06T21:45:40.100Z,14.20
2018-10-06T21:48:08.216Z,12.67
2018-10-06T21:50:36.412Z,14.57
2018-10-06T21:53:04.464Z,13.87
2018-10-06T21:55:32.749Z,14.90
2018-10-06T21:58:00.967Z,14.33
2018-10-06T22:00:29.102Z,15.93
2018-10-06T22:02:57.211Z,16.10
2018-10-06T22:05:25.383Z,16.10
2018-10-06T22:07:53.521Z,14.60
2018-10-06T22:10:21.644Z,15.93
2018-10-06T22:12:49.749Z,16.37
2018-10-06T22:15:18.048Z,15.23
2018-10-06T22:17:46.445Z,17.37
2018-10-06T22:20:14.613Z,18.87
2018-10-06T22:22:42.700Z,17.17
2018-10-06T22:25:10.846Z,16.67
2018-10-06T22:27:38.952Z,17.35
2018-10-06T22:30:07.693Z,21.50
2018-10-06T22:32:35.830Z,19.57
2018-10-06T22:35:03.948Z,21.50
2018-10-06T22:37:32.325Z,22.90
2018-10-06T22:40:00.406Z,21.77
2018-10-06T22:42:28.501Z,20.57
2018-10-06T22:44:56.608Z,23.00
2018-10-06T22:47:24.932Z,22.10
2018-10-06T22:49:53.064Z,22.20
2018-10-06T22:52:21.193Z,22.53
2018-10-06T22:54:49.318Z,24.03
2018-10-06T22:57:17.445Z,23.63
2018-10-06T22:59:45.555Z,23.70
2018-10-06T23:02:13.795Z,25.70
2018-10-06T23:04:41.914Z,27.87
2018-10-06T23:07:10.028Z,27.93
2018-10-06T23:09:38.124Z,28.83
2018-10-06T23:12:06.284Z,29.70
2018-10-06T23:14:34.484Z,29.47
2018-10-06T23:17:02.588Z,32.20
2018-10-06T23:19:30.683Z,28.70
2018-10-06T23:21:58.832Z,30.07
2018-10-06T23:24:26.947Z,30.57
2018-10-06T23:26:55.157Z,31.03
2018-10-06T23:29:23.268Z,35.00
2018-10-06T23:31:51.408Z,31.30
2018-10-06T23:34:19.511Z,34.57
2018-10-06T23:36:47.633Z,33.43
2018-10-06T23:39:15.771Z,35.90
2018-10-06T23:41:43.872Z,33.87
2018-10-06T23:44:12.000Z,33.00
2018-10-06T23:46:40.113Z,33.60
2018-10-06T23:49:08.253Z,34.53
2018-10-06T23:51:36.459Z,37.50
2018-10-06T23:54:04.602Z,33.33
2018-10-06T23:56:32.812Z,37.27
2018-10-06T23:59:00.936Z,39.37
